createdAt,value
2023-04-11T00:04:01.663Z,2.29
2023-04-11T00:09:09.809Z,1.82
2023-04-11T00:14:17.515Z,2.29
2023-04-11T00:19:26.738Z,2.57
2023-04-11T00:24:34.218Z,2.14
2023-04-11T00:29:41.950Z,1.87
2023-04-11T00:34:49.782Z,2.00
2023-04-11T00:39:57.699Z,2.06
2023-04-11T00:45:05.402Z,2.79
2023-04-11T00:50:13.647Z,2.14
2023-04-11T00:55:21.121Z,2.61
2023-04-11T01:00:28.761Z,2.19
2023-04-11T01:05:37.608Z,2.67
2023-04-11T01:10:46.179Z,1.95
2023-04-11T01:15:53.926Z,2.04
2023-04-11T01:21:01.906Z,2.03
2023-04-11T01:26:09.369Z,2.65
2023-04-11T01:31:20.588Z,2.26
2023-04-11T01:36:18.162Z,1.61
2023-04-11T01:41:25.857Z,2.13
2023-04-11T01:46:33.880Z,2.12
2023-04-11T01:51:42.124Z,2.06
2023-04-11T01:56:49.808Z,1.80
2023-04-11T02:01:58.059Z,1.65
2023-04-11T02:07:05.962Z,1.95
2023-04-11T02:12:14.151Z,1.89
2023-04-11T02:17:21.710Z,1.80
2023-04-11T02:22:30.010Z,1.81
2023-04-11T02:27:37.520Z,1.67
2023-04-11T02:32:45.751Z,1.74
2023-04-11T02:37:53.163Z,1.71
2023-04-11T02:43:01.223Z,1.64
2023-04-11T02:48:08.881Z,2.28
2023-04-11T02:53:16.989Z,1.98
2023-04-11T02:58:24.831Z,1.97
2023-04-11T03:03:32.845Z,1.85
2023-04-11T03:08:40.241Z,1.82
2023-04-11T03:13:48.001Z,1.65
2023-04-11T03:18:55.549Z,1.56
2023-04-11T03:24:03.786Z,2.20
2023-04-11T03:29:11.772Z,2.11
2023-04-11T03:34:19.822Z,1.58
2023-04-11T03:39:27.292Z,1.67
2023-04-11T03:44:35.625Z,1.48
2023-04-11T03:49:43.112Z,1.54
2023-04-11T03:54:51.311Z,1.88
2023-04-11T03:59:59.059Z,2.22
2023-04-11T04:05:07.289Z,1.58
2023-04-11T04:10:14.857Z,1.72
2023-04-11T04:15:22.908Z,1.74
2023-04-11T04:20:30.410Z,2.20
2023-04-11T04:25:38.577Z,1.68
2023-04-11T04:30:46.418Z,1.78
2023-04-11T04:35:54.686Z,1.52
2023-04-11T04:41:02.249Z,1.68
2023-04-11T04:46:10.114Z,1.84
2023-04-11T04:51:17.723Z,1.79
2023-04-11T04:56:25.870Z,1.72
2023-04-11T05:01:34.047Z,1.41
2023-04-11T05:11:48.710Z,1.57
2023-04-11T05:16:56.755Z,1.66
2023-04-11T05:22:04.616Z,1.51
2023-04-11T05:27:12.497Z,1.82
2023-04-11T05:32:20.391Z,2.39
2023-04-11T05:37:28.271Z,43.78
2023-04-11T05:42:35.729Z,53.03
2023-04-11T05:47:43.962Z,58.59
2023-04-11T05:52:51.416Z,56.43
2023-04-11T05:57:59.203Z,46.08
2023-04-11T06:03:07.071Z,44.20
2023-04-11T06:08:15.060Z,39.85
2023-04-11T06:13:22.836Z,37.45
2023-04-11T06:18:31.007Z,33.10
2023-04-11T06:23:38.800Z,28.36
2023-04-11T06:28:46.759Z,29.73
2023-04-11T06:33:54.746Z,26.17
2023-04-11T06:39:02.863Z,30.48
2023-04-11T06:44:10.509Z,23.64
2023-04-11T06:49:18.256Z,23.30
2023-04-11T06:54:25.924Z,23.11
2023-04-11T06:59:34.629Z,21.79
2023-04-11T07:04:42.662Z,19.77
2023-04-11T07:09:50.142Z,22.39
2023-04-11T07:14:57.814Z,18.92
2023-04-11T07:20:05.914Z,18.02
2023-04-11T07:25:13.666Z,19.16
2023-04-11T07:30:21.990Z,18.34
2023-04-11T07:35:29.620Z,16.94
2023-04-11T07:40:37.470Z,16.89
2023-04-11T07:45:45.147Z,15.12
2023-04-11T07:50:53.012Z,16.57
2023-04-11T07:56:00.992Z,16.73
2023-04-11T08:01:09.007Z,15.63
2023-04-11T08:06:16.644Z,14.99
2023-04-11T08:11:24.378Z,14.23
2023-04-11T08:16:32.230Z,14.53
2023-04-11T08:21:40.931Z,13.47
2023-04-11T08:26:48.938Z,14.74
2023-04-11T08:31:56.889Z,12.51
2023-04-11T08:37:04.346Z,11.68
2023-04-11T08:42:12.316Z,11.44
2023-04-11T08:47:19.826Z,12.45
2023-04-11T08:52:28.158Z,12.06
2023-04-11T08:57:36.017Z,11.07
2023-04-11T09:02:44.089Z,10.66
2023-04-11T09:07:51.768Z,12.98
2023-04-11T09:12:59.547Z,11.54
2023-04-11T09:18:07.104Z,9.41
2023-04-11T09:23:15.268Z,9.74
2023-04-11T09:28:23.275Z,8.80
2023-04-11T09:33:31.576Z,10.15
2023-04-11T09:38:39.230Z,9.72
2023-04-11T09:43:47.076Z,8.54
2023-04-11T09:48:54.950Z,8.81
2023-04-11T09:54:02.854Z,9.01
2023-04-11T09:59:10.511Z,9.25
2023-04-11T10:04:18.696Z,7.59
2023-04-11T10:09:26.300Z,7.43
2023-04-11T10:14:34.012Z,8.75
2023-04-11T10:19:41.927Z,8.54
2023-04-11T10:24:50.139Z,7.05
2023-04-11T10:29:57.812Z,7.74
2023-04-11T10:35:05.706Z,7.74
2023-04-11T10:40:13.440Z,7.11
2023-04-11T10:45:21.461Z,6.72
2023-04-11T10:50:29.313Z,7.79
2023-04-11T10:55:37.102Z,7.38
2023-04-11T11:00:44.979Z,7.01
2023-04-11T11:05:53.102Z,7.08
2023-04-11T11:11:00.785Z,7.12
2023-04-11T11:16:09.050Z,8.09
2023-04-11T11:21:24.519Z,6.75
2023-04-11T11:26:24.226Z,6.75
2023-04-11T11:31:37.015Z,6.18
2023-04-11T11:36:35.022Z,6.44
2023-04-11T11:41:42.452Z,6.31
2023-04-11T11:46:50.112Z,6.17
2023-04-11T11:51:57.785Z,5.84
2023-04-11T11:57:06.303Z,5.84
2023-04-11T12:02:14.116Z,6.09
2023-04-11T12:07:22.086Z,5.64
2023-04-11T12:12:29.585Z,5.31
2023-04-11T12:17:38.146Z,5.55
2023-04-11T12:22:45.740Z,5.18
2023-04-11T12:27:54.165Z,4.99
2023-04-11T12:33:01.752Z,5.17
2023-04-11T12:38:10.952Z,4.71
2023-04-11T12:43:17.291Z,4.78
2023-04-11T12:48:25.334Z,5.01
2023-04-11T12:53:33.682Z,5.19
2023-04-11T12:58:41.550Z,4.03
2023-04-11T13:03:49.267Z,4.84
2023-04-11T13:08:57.476Z,4.60
2023-04-11T13:14:04.371Z,4.42
2023-04-11T13:19:12.474Z,4.75
2023-04-11T13:24:19.979Z,4.04
2023-04-11T13:29:28.076Z,4.06
2023-04-11T13:34:35.877Z,4.32
2023-04-11T13:39:44.070Z,4.26
2023-04-11T13:44:51.733Z,5.13
2023-04-11T13:49:59.665Z,3.82
2023-04-11T13:55:07.302Z,4.09
2023-04-11T14:00:15.433Z,4.52
2023-04-11T14:05:23.178Z,3.69
2023-04-11T14:10:30.870Z,3.16
2023-04-11T14:15:38.516Z,3.29
2023-04-11T14:20:46.540Z,4.09
2023-04-11T14:25:54.280Z,4.19
2023-04-11T14:31:02.796Z,3.75
2023-04-11T14:36:10.206Z,3.94
2023-04-11T14:41:18.630Z,3.87
2023-04-11T14:46:26.379Z,3.64
2023-04-11T14:51:34.277Z,4.01
2023-04-11T14:56:41.708Z,3.18
2023-04-11T15:01:49.958Z,3.90
2023-04-11T15:06:58.008Z,3.27
2023-04-11T15:12:06.270Z,3.69
2023-04-11T15:17:15.202Z,3.18
2023-04-11T15:22:23.083Z,2.77
2023-04-11T15:27:30.910Z,3.38
2023-04-11T15:32:38.971Z,3.60
2023-04-11T15:37:46.641Z,3.51
2023-04-11T15:42:54.895Z,3.16
2023-04-11T15:48:02.792Z,3.44
2023-04-11T15:53:10.944Z,3.16
2023-04-11T15:58:18.481Z,3.51
2023-04-11T16:03:26.456Z,3.26
2023-04-11T16:08:34.446Z,3.38
2023-04-11T16:13:42.628Z,2.66
2023-04-11T16:18:50.557Z,3.21
2023-04-11T16:23:58.909Z,3.04
2023-04-11T16:29:06.472Z,2.93
2023-04-11T16:34:14.339Z,2.61
2023-04-11T16:39:22.174Z,3.04
2023-04-11T16:44:30.037Z,2.97
2023-04-11T16:49:37.701Z,2.50
2023-04-11T16:54:45.679Z,2.14
2023-04-11T16:59:53.340Z,2.81
2023-04-11T17:05:01.250Z,3.20
2023-04-11T17:10:08.884Z,2.49
2023-04-11T17:15:16.630Z,2.83
2023-04-11T17:20:24.260Z,3.48
2023-04-11T17:25:32.277Z,3.44
2023-04-11T17:30:39.914Z,2.34
2023-04-11T17:35:48.005Z,2.49
2023-04-11T17:41:00.124Z,2.60
2023-04-11T17:46:02.980Z,2.81
2023-04-11T17:51:10.568Z,2.42
2023-04-11T18:01:31.452Z,2.38
2023-04-11T18:06:29.268Z,2.86
2023-04-11T18:11:37.122Z,2.69
2023-04-11T18:16:45.022Z,2.47
2023-04-11T18:21:52.762Z,2.29
2023-04-11T18:27:00.739Z,2.14
2023-04-11T18:32:08.502Z,1.87
2023-04-11T18:37:16.208Z,1.89
2023-04-11T18:42:23.819Z,2.14
2023-04-11T18:47:32.316Z,2.81
2023-04-11T18:52:39.707Z,2.40
2023-04-11T18:57:48.844Z,2.37
2023-04-11T19:02:55.459Z,2.05
2023-04-11T19:08:03.058Z,1.98
2023-04-11T19:13:10.694Z,2.01
2023-04-11T19:18:18.428Z,2.14
2023-04-11T19:23:25.910Z,2.05
2023-04-11T19:28:34.045Z,5.55
2023-04-11T19:33:41.522Z,13.01
2023-04-11T19:38:49.196Z,40.72
2023-04-11T19:43:57.299Z,46.19
2023-04-11T19:49:05.032Z,49.82
2023-04-11T19:54:12.777Z,46.80
2023-04-11T19:59:21.012Z,40.69
2023-04-11T20:04:28.567Z,41.66
2023-04-11T20:09:36.279Z,38.10
2023-04-11T20:14:43.751Z,36.09
2023-04-11T20:19:51.830Z,35.96
2023-04-11T20:24:59.500Z,31.67
2023-04-11T20:30:07.272Z,33.05
2023-04-11T20:35:14.931Z,29.24
2023-04-11T20:40:23.076Z,27.78
2023-04-11T20:45:30.587Z,28.03
2023-04-11T20:50:38.420Z,26.81
2023-04-11T20:55:46.202Z,25.25
2023-04-11T21:00:54.260Z,22.61
2023-04-11T21:06:02.100Z,22.60
2023-04-11T21:11:09.970Z,20.86
2023-04-11T21:16:17.741Z,20.13
2023-04-11T21:21:25.626Z,20.69
2023-04-11T21:26:33.338Z,18.66
2023-04-11T21:31:43.450Z,18.42
2023-04-11T21:36:41.014Z,18.24
2023-04-11T21:41:48.854Z,17.66
2023-04-11T21:46:56.817Z,14.69
2023-04-11T21:52:04.447Z,15.58
2023-04-11T21:57:12.156Z,14.58
2023-04-11T22:02:20.333Z,13.20
2023-04-11T22:07:27.719Z,13.02
2023-04-11T22:12:36.075Z,13.24
2023-04-11T22:17:43.855Z,13.55
2023-04-11T22:22:51.948Z,12.74
2023-04-11T22:27:59.665Z,11.29
2023-04-11T22:33:07.647Z,11.16
2023-04-11T22:38:15.498Z,10.64
2023-04-11T22:43:23.233Z,11.22
2023-04-11T22:48:30.701Z,10.10
2023-04-11T22:53:38.847Z,9.38
2023-04-11T22:58:46.630Z,9.76
2023-04-11T23:03:54.483Z,9.71
2023-04-11T23:09:02.401Z,10.27
2023-04-11T23:14:10.413Z,8.79
2023-04-11T23:19:17.974Z,10.06
2023-04-11T23:24:25.674Z,9.38
2023-04-11T23:29:33.207Z,9.42
2023-04-11T23:34:41.205Z,7.87
2023-04-11T23:39:48.744Z,7.83
2023-04-11T23:44:56.715Z,7.99
2023-04-11T23:50:04.525Z,8.86
2023-04-11T23:55:12.523Z,7.08
